Time;durP1;ratioP1;P1;durP2;ratioP2;P2;SDS_P1;SDS_P2;PMS_P1;PMS_P2;Temp;Humidity;BMP_temperature;BMP_pressure;BME280_temperature;BME280_humidity;BME280_pressure;Samples;Min_cycle;Max_cycle;Signal;HPM_P1;HPM_P2
2021/07/12 00:00:29;;;;;;;6.72;3.90;;;;;;;;;;5038945;28;20602;-73
2021/07/12 00:02:55;;;;;;;4.28;3.22;;;;;;;;;;5023708;28;20024;-72
2021/07/12 00:05:21;;;;;;;4.95;3.70;;;;;;;;;;5029865;28;20480;-71
2021/07/12 00:07:46;;;;;;;4.13;3.33;;;;;;;;;;5043103;28;21509;-71
2021/07/12 00:10:13;;;;;;;7.57;3.80;;;;;;;;;;5027743;28;20361;-70
2021/07/12 00:12:39;;;;;;;8.02;3.95;;;;;;;;;;5036304;28;20116;-71
2021/07/12 00:15:05;;;;;;;7.32;3.70;;;;;;;;;;5033045;28;20108;-72
2021/07/12 00:17:30;;;;;;;5.65;3.95;;;;;;;;;;5035977;28;20040;-72
2021/07/12 00:19:55;;;;;;;9.10;4.32;;;;;;;;;;5024791;28;20378;-72
2021/07/12 00:22:20;;;;;;;7.57;4.20;;;;;;;;;;5029770;28;20064;-73
2021/07/12 00:24:46;;;;;;;8.15;4.15;;;;;;;;;;5027465;28;20714;-71
2021/07/12 00:27:11;;;;;;;8.00;4.40;;;;;;;;;;5033870;28;20036;-72
2021/07/12 00:29:36;;;;;;;9.90;4.40;;;;;;;;;;5032783;28;20033;-72
2021/07/12 00:32:01;;;;;;;5.93;4.17;;;;;;;;;;5029263;28;20077;-72
2021/07/12 00:34:26;;;;;;;5.60;3.67;;;;;;;;;;5030763;28;20296;-72
2021/07/12 00:36:52;;;;;;;6.13;3.95;;;;;;;;;;5028360;28;20072;-72
2021/07/12 00:39:17;;;;;;;6.03;3.80;;;;;;;;;;5030322;28;20068;-72
2021/07/12 00:41:42;;;;;;;7.40;4.32;;;;;;;;;;5030882;28;20338;-72
2021/07/12 00:44:07;;;;;;;6.03;4.05;;;;;;;;;;5045522;28;20021;-72
2021/07/12 00:46:33;;;;;;;6.00;3.70;;;;;;;;;;5030891;28;20020;-72
2021/07/12 00:48:58;;;;;;;5.13;3.85;;;;;;;;;;5030180;28;20085;-72
2021/07/12 00:51:24;;;;;;;6.63;3.85;;;;;;;;;;5040800;28;20430;-72
2021/07/12 00:53:49;;;;;;;7.00;3.85;;;;;;;;;;5039224;28;20426;-72
2021/07/12 00:56:15;;;;;;;6.53;4.05;;;;;;;;;;5042588;28;20036;-72
2021/07/12 00:58:40;;;;;;;6.38;3.70;;;;;;;;;;5047576;28;20017;-71
2021/07/12 01:01:05;;;;;;;6.13;3.78;;;;;;;;;;5029435;28;20025;-72
2021/07/12 01:03:30;;;;;;;4.68;3.60;;;;;;;;;;5033703;28;20052;-72
2021/07/12 01:05:56;;;;;;;5.95;3.80;;;;;;;;;;5027389;28;20167;-72
2021/07/12 01:08:21;;;;;;;4.45;3.53;;;;;;;;;;5044336;28;20032;-72
2021/07/12 01:10:55;;;;;;;5.75;3.75;;;;;;;;;;5042241;28;20029;-72
2021/07/12 01:13:23;;;;;;;6.00;3.80;;;;;;;;;;5036477;28;20029;-73
2021/07/12 01:15:53;;;;;;;6.40;3.33;;;;;;;;;;5036218;28;20814;-73
2021/07/12 01:18:20;;;;;;;4.70;3.42;;;;;;;;;;5031283;28;20438;-72
2021/07/12 01:21:05;;;;;;;5.35;3.53;;;;;;;;;;5034654;28;20068;-72
2021/07/12 01:23:35;;;;;;;6.35;3.70;;;;;;;;;;5035626;28;20026;-72
2021/07/12 01:26:15;;;;;;;5.13;3.58;;;;;;;;;;5032308;28;20024;-73
2021/07/12 01:28:59;;;;;;;4.35;3.03;;;;;;;;;;5034743;28;20064;-72
2021/07/12 01:31:42;;;;;;;7.45;3.38;;;;;;;;;;5030655;28;20033;-71
2021/07/12 01:34:12;;;;;;;6.18;3.55;;;;;;;;;;5028358;28;20071;-72
2021/07/12 01:36:37;;;;;;;;;;;;;;;;;;5034228;28;20056;-72
2021/07/12 01:39:07;;;;;;;5.47;3.00;;;;;;;;;;5039266;28;19963;-72
2021/07/12 01:41:46;;;;;;;5.20;3.33;;;;;;;;;;5034184;28;20424;-71
2021/07/12 01:44:30;;;;;;;4.43;3.20;;;;;;;;;;5035432;28;20033;-72
2021/07/12 01:47:07;;;;;;;6.82;3.10;;;;;;;;;;5025759;28;20029;-70
2021/07/12 01:49:51;;;;;;;6.05;3.30;;;;;;;;;;5039946;28;20598;-72
2021/07/12 01:52:23;;;;;;;4.50;3.38;;;;;;;;;;5033935;28;20032;-72
2021/07/12 01:55:07;;;;;;;6.72;3.72;;;;;;;;;;5035410;28;20045;-72
2021/07/12 01:57:35;;;;;;;5.53;3.13;;;;;;;;;;5031935;28;20105;-72
2021/07/12 02:00:03;;;;;;;5.97;3.20;;;;;;;;;;5027467;28;20026;-73
2021/07/12 02:02:30;;;;;;;6.47;2.90;;;;;;;;;;5027069;28;20116;-71
2021/07/12 02:04:57;;;;;;;6.68;3.70;;;;;;;;;;5029082;28;20022;-71
2021/07/12 02:07:23;;;;;;;5.90;2.88;;;;;;;;;;5027314;28;20021;-72
2021/07/12 02:09:49;;;;;;;8.50;3.00;;;;;;;;;;5028671;28;20032;-71
2021/07/12 02:12:15;;;;;;;7.20;3.38;;;;;;;;;;5031762;28;20025;-72
2021/07/12 02:14:42;;;;;;;4.85;3.08;;;;;;;;;;5036243;28;20053;-71
2021/07/12 02:17:09;;;;;;;6.90;3.45;;;;;;;;;;5039563;28;20026;-73
2021/07/12 02:19:35;;;;;;;8.77;3.50;;;;;;;;;;5029326;28;20034;-72
2021/07/12 02:22:01;;;;;;;7.22;3.50;;;;;;;;;;5027802;28;20029;-71
2021/07/12 02:24:28;;;;;;;7.03;3.42;;;;;;;;;;5031939;28;20086;-72
2021/07/12 02:26:54;;;;;;;4.85;3.10;;;;;;;;;;5025863;28;20040;-71
2021/07/12 02:29:19;;;;;;;5.25;2.70;;;;;;;;;;5029525;28;20025;-72
2021/07/12 02:31:46;;;;;;;3.75;2.88;;;;;;;;;;5033765;28;20021;-72
2021/07/12 02:34:12;;;;;;;7.97;3.00;;;;;;;;;;5040266;28;20130;-72
2021/07/12 02:36:38;;;;;;;5.38;3.13;;;;;;;;;;5031320;28;20482;-72
2021/07/12 02:39:04;;;;;;;4.13;2.90;;;;;;;;;;5031256;28;20057;-72
2021/07/12 02:41:30;;;;;;;4.10;3.00;;;;;;;;;;5027200;28;22525;-71
2021/07/12 02:43:55;;;;;;;5.63;2.72;;;;;;;;;;5030869;28;20029;-71
2021/07/12 02:46:22;;;;;;;4.13;2.97;;;;;;;;;;5028912;28;20021;-72
2021/07/12 02:48:47;;;;;;;4.53;3.10;;;;;;;;;;5028137;28;20048;-72
2021/07/12 02:51:14;;;;;;;4.57;3.08;;;;;;;;;;5026723;28;20473;-73
2021/07/12 02:53:43;;;;;;;5.95;2.95;;;;;;;;;;5030889;28;20021;-73
2021/07/12 02:56:08;;;;;;;6.50;3.30;;;;;;;;;;5037080;28;20021;-72
2021/07/12 02:58:35;;;;;;;4.70;2.75;;;;;;;;;;5029785;28;20036;-73
2021/07/12 03:01:00;;;;;;;4.55;2.78;;;;;;;;;;5030557;28;20603;-70
2021/07/12 03:03:25;;;;;;;8.23;2.97;;;;;;;;;;5028635;28;20030;-71
2021/07/12 03:05:53;;;;;;;6.93;3.13;;;;;;;;;;5032484;28;20760;-72
2021/07/12 03:08:28;;;;;;;6.55;2.67;;;;;;;;;;5040004;28;20336;-72
2021/07/12 03:10:55;;;;;;;3.53;2.60;;;;;;;;;;5026821;28;20028;-72
2021/07/12 03:13:22;;;;;;;4.22;3.08;;;;;;;;;;5030182;28;20026;-72
2021/07/12 03:15:48;;;;;;;6.28;2.90;;;;;;;;;;5033008;28;20041;-73
2021/07/12 03:18:23;;;;;;;6.22;3.10;;;;;;;;;;5034956;28;20577;-72
2021/07/12 03:20:50;;;;;;;4.28;2.95;;;;;;;;;;5030415;28;20030;-72
2021/07/12 03:23:15;;;;;;;6.00;2.63;;;;;;;;;;5030915;28;20037;-71
2021/07/12 03:25:45;;;;;;;3.60;2.45;;;;;;;;;;5032983;28;20017;-71
2021/07/12 03:28:11;;;;;;;3.60;2.50;;;;;;;;;;5035267;28;20114;-72
2021/07/12 03:30:36;;;;;;;5.78;2.55;;;;;;;;;;5029641;28;20033;-72
2021/07/12 03:33:03;;;;;;;3.97;2.65;;;;;;;;;;5032740;28;20062;-72
2021/07/12 03:35:33;;;;;;;4.55;2.60;;;;;;;;;;5027436;28;20025;-72
2021/07/12 03:37:58;;;;;;;;;;;;;;;;;;5040495;28;20027;-73
2021/07/12 03:40:23;;;;;;;3.97;2.67;;;;;;;;;;5026113;28;20019;-72
2021/07/12 03:42:48;;;;;;;3.45;2.33;;;;;;;;;;5033136;28;20049;-72
2021/07/12 03:45:15;;;;;;;4.70;2.60;;;;;;;;;;5028384;28;20304;-72
2021/07/12 03:47:40;;;;;;;4.43;2.70;;;;;;;;;;5035920;28;20028;-72
2021/07/12 03:50:10;;;;;;;4.60;2.53;;;;;;;;;;5037671;28;20025;-72
2021/07/12 03:52:39;;;;;;;3.33;2.60;;;;;;;;;;5025171;28;20507;-72
2021/07/12 03:55:04;;;;;;;4.05;2.50;;;;;;;;;;5040733;28;20547;-72
2021/07/12 03:57:29;;;;;;;3.85;2.45;;;;;;;;;;5030191;28;20025;-73
2021/07/12 03:59:54;;;;;;;4.18;2.53;;;;;;;;;;5037628;28;20042;-72
2021/07/12 04:02:20;;;;;;;4.85;2.60;;;;;;;;;;5031821;28;20025;-72
2021/07/12 04:04:45;;;;;;;3.63;2.35;;;;;;;;;;5038185;28;20389;-72
2021/07/12 04:07:10;;;;;;;4.32;2.72;;;;;;;;;;5033758;28;20029;-72
2021/07/12 04:09:36;;;;;;;4.78;2.50;;;;;;;;;;5029344;28;20056;-71
2021/07/12 04:12:02;;;;;;;3.33;2.28;;;;;;;;;;5037195;28;20038;-72
2021/07/12 04:14:27;;;;;;;4.10;2.75;;;;;;;;;;5033350;28;20545;-71
2021/07/12 04:16:52;;;;;;;4.75;2.70;;;;;;;;;;5036259;28;20445;-72
2021/07/12 04:19:17;;;;;;;4.93;2.95;;;;;;;;;;5028326;28;20042;-72
2021/07/12 04:21:42;;;;;;;7.18;2.90;;;;;;;;;;5029182;28;20067;-72
2021/07/12 04:24:08;;;;;;;4.70;2.78;;;;;;;;;;5032055;28;20530;-72
2021/07/12 04:26:33;;;;;;;6.13;2.95;;;;;;;;;;5040260;28;20063;-72
2021/07/12 04:29:01;;;;;;;3.60;2.50;;;;;;;;;;5033972;28;20021;-71
2021/07/12 04:31:26;;;;;;;5.65;2.90;;;;;;;;;;5029145;28;20276;-72
2021/07/12 04:33:51;;;;;;;6.20;2.77;;;;;;;;;;5033839;28;20365;-72
2021/07/12 04:36:16;;;;;;;4.07;2.35;;;;;;;;;;5039139;28;20399;-71
2021/07/12 04:38:41;;;;;;;5.55;2.58;;;;;;;;;;5037060;28;20107;-71
2021/07/12 04:41:07;;;;;;;4.93;2.50;;;;;;;;;;5025307;28;20440;-64
2021/07/12 04:43:32;;;;;;;4.50;2.67;;;;;;;;;;5030449;28;20641;-64
2021/07/12 04:45:57;;;;;;;3.35;2.50;;;;;;;;;;5043653;28;20032;-64
2021/07/12 04:48:22;;;;;;;4.95;2.85;;;;;;;;;;5030455;28;20018;-65
2021/07/12 04:50:47;;;;;;;4.57;2.67;;;;;;;;;;5042219;28;20048;-65
2021/07/12 04:53:12;;;;;;;4.83;2.87;;;;;;;;;;5033707;28;20284;-64
2021/07/12 04:55:38;;;;;;;4.43;2.60;;;;;;;;;;5039979;28;20260;-64
2021/07/12 04:58:03;;;;;;;6.35;3.10;;;;;;;;;;5030704;28;20515;-64
2021/07/12 05:00:28;;;;;;;4.63;2.80;;;;;;;;;;5028030;28;20033;-65
2021/07/12 05:02:53;;;;;;;3.92;2.50;;;;;;;;;;5031047;28;20477;-65
2021/07/12 05:05:19;;;;;;;3.03;2.07;;;;;;;;;;5039231;28;20459;-64
2021/07/12 05:07:44;;;;;;;6.22;2.85;;;;;;;;;;5032026;28;20272;-64
2021/07/12 05:10:10;;;;;;;7.20;2.27;;;;;;;;;;5030619;28;20025;-64
2021/07/12 05:12:36;;;;;;;3.25;2.15;;;;;;;;;;5030041;28;20276;-64
2021/07/12 05:15:01;;;;;;;4.78;2.30;;;;;;;;;;5040388;28;20048;-64
2021/07/12 05:17:26;;;;;;;5.03;2.90;;;;;;;;;;5030656;28;20053;-64
2021/07/12 05:19:52;;;;;;;3.45;2.25;;;;;;;;;;5032652;28;20041;-64
2021/07/12 05:22:17;;;;;;;5.00;2.50;;;;;;;;;;5032502;28;20091;-63
2021/07/12 05:24:42;;;;;;;4.25;2.70;;;;;;;;;;5035688;28;20648;-64
2021/07/12 05:27:07;;;;;;;6.13;2.40;;;;;;;;;;5031334;28;20071;-65
2021/07/12 05:29:33;;;;;;;4.32;2.30;;;;;;;;;;5036355;28;20275;-64
2021/07/12 05:31:58;;;;;;;4.57;2.85;;;;;;;;;;5035642;28;20064;-61
2021/07/12 05:34:23;;;;;;;3.17;2.20;;;;;;;;;;5034885;28;20823;-63
2021/07/12 05:36:48;;;;;;;3.08;2.20;;;;;;;;;;5040517;28;20459;-65
2021/07/12 05:39:14;;;;;;;3.50;2.03;;;;;;;;;;5030624;28;20081;-63
2021/07/12 05:41:39;;;;;;;4.45;2.40;;;;;;;;;;5042203;28;20311;-64
2021/07/12 05:44:04;;;;;;;3.70;2.17;;;;;;;;;;5030396;28;20025;-63
2021/07/12 05:46:30;;;;;;;4.17;2.50;;;;;;;;;;5032644;28;20066;-63
2021/07/12 05:48:55;;;;;;;4.63;2.27;;;;;;;;;;5030886;28;20340;-65
2021/07/12 05:51:20;;;;;;;3.75;1.90;;;;;;;;;;5035691;28;20263;-65
2021/07/12 05:53:46;;;;;;;4.07;1.90;;;;;;;;;;5038199;28;20492;-64
2021/07/12 05:56:11;;;;;;;4.45;1.90;;;;;;;;;;5025037;28;20268;-63
2021/07/12 05:58:36;;;;;;;3.07;2.30;;;;;;;;;;5018504;28;20018;-62
2021/07/12 06:01:01;;;;;;;2.97;2.07;;;;;;;;;;5035064;28;20122;-63
2021/07/12 06:03:26;;;;;;;3.15;1.90;;;;;;;;;;5029142;28;20264;-64
2021/07/12 06:05:51;;;;;;;2.73;2.00;;;;;;;;;;5036455;28;20087;-64
2021/07/12 06:08:17;;;;;;;4.00;1.90;;;;;;;;;;5031256;28;20021;-64
2021/07/12 06:10:42;;;;;;;3.27;2.13;;;;;;;;;;5040674;28;20292;-65
2021/07/12 06:13:07;;;;;;;3.78;2.13;;;;;;;;;;5042051;28;20410;-64
2021/07/12 06:15:33;;;;;;;6.00;2.20;;;;;;;;;;5027504;28;20049;-64
2021/07/12 06:17:58;;;;;;;4.85;1.77;;;;;;;;;;5029627;28;20676;-65
2021/07/12 06:20:23;;;;;;;3.22;1.98;;;;;;;;;;5026218;28;20508;-65
2021/07/12 06:22:49;;;;;;;5.03;1.83;;;;;;;;;;5035970;28;20021;-65
2021/07/12 06:25:15;;;;;;;2.38;1.98;;;;;;;;;;5046767;28;20739;-64
2021/07/12 06:27:40;;;;;;;4.03;2.00;;;;;;;;;;5032582;28;20401;-64
2021/07/12 06:30:06;;;;;;;3.42;2.10;;;;;;;;;;5039455;28;20027;-64
2021/07/12 06:32:31;;;;;;;2.88;1.95;;;;;;;;;;5041807;28;20025;-65
2021/07/12 06:34:57;;;;;;;3.45;1.92;;;;;;;;;;5033293;28;20033;-64
2021/07/12 06:37:22;;;;;;;3.33;2.10;;;;;;;;;;5038752;28;20025;-64
2021/07/12 06:39:47;;;;;;;3.50;1.73;;;;;;;;;;5033940;28;20628;-64
2021/07/12 06:42:12;;;;;;;3.63;1.63;;;;;;;;;;5029053;28;20296;-65
2021/07/12 06:44:37;;;;;;;5.30;2.00;;;;;;;;;;5029505;28;20430;-64
2021/07/12 06:47:03;;;;;;;2.53;1.60;;;;;;;;;;5029379;28;20032;-64
2021/07/12 06:49:28;;;;;;;2.22;1.67;;;;;;;;;;5038398;28;20531;-63
2021/07/12 06:51:53;;;;;;;2.60;1.60;;;;;;;;;;5042842;28;20394;-63
2021/07/12 06:54:18;;;;;;;3.83;1.73;;;;;;;;;;5035075;28;20277;-63
2021/07/12 06:56:43;;;;;;;4.37;1.63;;;;;;;;;;5041257;28;20136;-64
2021/07/12 06:59:08;;;;;;;3.43;1.67;;;;;;;;;;5043071;28;20305;-63
2021/07/12 07:01:34;;;;;;;4.03;1.70;;;;;;;;;;5035742;28;20799;-64
2021/07/12 07:03:59;;;;;;;2.05;1.60;;;;;;;;;;5033731;28;20260;-65
2021/07/12 07:06:24;;;;;;;2.10;1.25;;;;;;;;;;5042002;28;20025;-64
2021/07/12 07:08:49;;;;;;;3.30;1.67;;;;;;;;;;5038111;28;20017;-65
2021/07/12 07:11:15;;;;;;;3.78;1.50;;;;;;;;;;5038795;28;20025;-64
2021/07/12 07:13:40;;;;;;;2.30;1.40;;;;;;;;;;5032339;28;20025;-65
2021/07/12 07:16:05;;;;;;;2.53;1.47;;;;;;;;;;5029210;28;20024;-64
2021/07/12 07:18:30;;;;;;;3.67;1.35;;;;;;;;;;5028184;28;20276;-65
2021/07/12 07:20:55;;;;;;;2.97;1.20;;;;;;;;;;5028639;28;20044;-64
2021/07/12 07:23:21;;;;;;;1.60;1.10;;;;;;;;;;5033014;28;20276;-65
2021/07/12 07:25:46;;;;;;;2.28;1.13;;;;;;;;;;5046032;28;20320;-65
2021/07/12 07:28:11;;;;;;;2.63;1.40;;;;;;;;;;5046505;28;20035;-65
2021/07/12 07:30:38;;;;;;;4.87;1.07;;;;;;;;;;5052044;28;20259;-65
2021/07/12 07:33:03;;;;;;;3.35;1.40;;;;;;;;;;5048173;28;20358;-65
2021/07/12 07:35:28;;;;;;;1.45;1.02;;;;;;;;;;5046040;28;20391;-64
2021/07/12 07:37:54;;;;;;;2.08;1.30;;;;;;;;;;5044913;28;20039;-64
2021/07/12 07:40:20;;;;;;;1.65;1.10;;;;;;;;;;5045319;28;20036;-64
2021/07/12 07:42:46;;;;;;;2.45;1.40;;;;;;;;;;5045992;28;20049;-64
2021/07/12 07:45:12;;;;;;;4.47;1.58;;;;;;;;;;5051177;28;20021;-65
2021/07/12 07:47:38;;;;;;;2.85;1.10;;;;;;;;;;5044023;28;20028;-65
2021/07/12 07:50:04;;;;;;;4.22;1.35;;;;;;;;;;5047208;28;20392;-65
2021/07/12 07:52:29;;;;;;;1.80;1.25;;;;;;;;;;5049735;28;20017;-65
2021/07/12 07:54:54;;;;;;;2.63;1.40;;;;;;;;;;5047265;28;20033;-64
2021/07/12 07:57:19;;;;;;;2.92;1.27;;;;;;;;;;5035010;28;20057;-65
2021/07/12 07:59:45;;;;;;;2.45;1.63;;;;;;;;;;5048264;28;20326;-64
2021/07/12 08:02:10;;;;;;;2.40;1.45;;;;;;;;;;5051871;28;20420;-64
2021/07/12 08:04:36;;;;;;;4.30;1.35;;;;;;;;;;5047043;28;20082;-65
2021/07/12 08:07:01;;;;;;;2.30;1.50;;;;;;;;;;5041243;28;20014;-64
2021/07/12 08:09:26;;;;;;;1.55;1.17;;;;;;;;;;5032234;28;20343;-64
2021/07/12 08:11:51;;;;;;;3.45;1.30;;;;;;;;;;5046313;28;20021;-64
2021/07/12 08:14:17;;;;;;;4.13;1.75;;;;;;;;;;5038362;28;20033;-64
2021/07/12 08:16:42;;;;;;;1.42;1.10;;;;;;;;;;5033215;28;20029;-64
2021/07/12 08:19:07;;;;;;;1.53;1.27;;;;;;;;;;5031995;28;20100;-65
2021/07/12 08:21:33;;;;;;;1.20;1.07;;;;;;;;;;5044370;28;20286;-64
2021/07/12 08:23:58;;;;;;;1.80;1.40;;;;;;;;;;5038565;28;20363;-64
2021/07/12 08:26:23;;;;;;;1.98;1.30;;;;;;;;;;5028863;28;20022;-64
2021/07/12 08:28:48;;;;;;;2.65;1.52;;;;;;;;;;5031972;28;20017;-65
2021/07/12 08:31:13;;;;;;;2.20;1.17;;;;;;;;;;5049830;28;20025;-65
2021/07/12 08:33:39;;;;;;;2.73;1.10;;;;;;;;;;5049643;28;20345;-64
2021/07/12 08:36:05;;;;;;;3.17;1.20;;;;;;;;;;5046908;28;20268;-64
2021/07/12 08:38:30;;;;;;;1.52;1.20;;;;;;;;;;5042088;28;20024;-64
2021/07/12 08:40:56;;;;;;;2.78;1.13;;;;;;;;;;5050444;28;20033;-65
2021/07/12 08:43:21;;;;;;;2.03;1.25;;;;;;;;;;5040867;28;20128;-64
2021/07/12 08:45:46;;;;;;;2.17;1.27;;;;;;;;;;5037615;28;20033;-64
2021/07/12 08:48:12;;;;;;;2.58;1.20;;;;;;;;;;5027523;28;20044;-64
2021/07/12 08:50:37;;;;;;;1.73;1.20;;;;;;;;;;5031410;28;20405;-64
2021/07/12 08:53:02;;;;;;;4.13;1.20;;;;;;;;;;5046302;28;20021;-65
2021/07/12 08:55:27;;;;;;;1.92;1.30;;;;;;;;;;5046032;28;20367;-65
2021/07/12 08:58:00;;;;;;;2.73;1.10;;;;;;;;;;5030823;28;20113;-65
2021/07/12 09:00:35;;;;;;;2.25;1.10;;;;;;;;;;5037744;28;20708;-65
2021/07/12 09:03:17;;;;;;;1.80;1.00;;;;;;;;;;5040175;28;20032;-64
2021/07/12 09:05:56;;;;;;;2.28;1.38;;;;;;;;;;5039037;28;20100;-65
2021/07/12 09:08:41;;;;;;;1.73;1.00;;;;;;;;;;5037806;28;20112;-64
2021/07/12 09:11:07;;;;;;;1.52;1.13;;;;;;;;;;5031200;28;20426;-64
2021/07/12 09:13:43;;;;;;;2.67;1.27;;;;;;;;;;5031141;28;20071;-64
2021/07/12 09:16:27;;;;;;;1.60;1.00;;;;;;;;;;5030817;28;20022;-64
2021/07/12 09:19:22;;;;;;;1.95;1.13;;;;;;;;;;5028609;28;20106;-65
2021/07/12 09:21:57;;;;;;;2.85;1.35;;;;;;;;;;5009944;28;20624;-65
2021/07/12 09:24:30;;;;;;;1.20;0.88;;;;;;;;;;5027721;28;20024;-64
2021/07/12 09:27:14;;;;;;;1.60;1.10;;;;;;;;;;5014469;28;20041;-65
2021/07/12 09:29:41;;;;;;;1.23;1.00;;;;;;;;;;5014645;28;20076;-64
2021/07/12 09:32:08;;;;;;;1.50;1.00;;;;;;;;;;5014477;28;20070;-67
2021/07/12 09:34:34;;;;;;;1.70;1.20;;;;;;;;;;5019666;28;20032;-64
2021/07/12 09:36:59;;;;;;;2.83;1.17;;;;;;;;;;5026607;28;20451;-64
2021/07/12 09:39:26;;;;;;;1.08;0.98;;;;;;;;;;5027070;28;20128;-65
2021/07/12 09:41:52;;;;;;;1.70;1.10;;;;;;;;;;5009066;28;20385;-65
2021/07/12 09:44:18;;;;;;;1.83;1.10;;;;;;;;;;5018133;28;20025;-65
2021/07/12 09:46:44;;;;;;;3.08;1.20;;;;;;;;;;5009920;28;20100;-64
2021/07/12 09:49:10;;;;;;;1.40;1.10;;;;;;;;;;5023886;28;20037;-64
2021/07/12 09:51:36;;;;;;;3.25;1.35;;;;;;;;;;5026238;28;20120;-65
2021/07/12 09:54:19;;;;;;;2.45;1.70;;;;;;;;;;5017436;28;20118;-64
2021/07/12 09:56:48;;;;;;;2.88;1.45;;;;;;;;;;5011931;28;20033;-65
2021/07/12 09:59:14;;;;;;;2.03;1.27;;;;;;;;;;5021912;28;20039;-65
2021/07/12 10:01:44;;;;;;;3.30;1.13;;;;;;;;;;5035703;28;20079;-64
2021/07/12 10:04:10;;;;;;;4.95;1.20;;;;;;;;;;5035975;28;20029;-65
2021/07/12 10:06:36;;;;;;;3.03;1.20;;;;;;;;;;5040951;28;20025;-64
2021/07/12 10:09:01;;;;;;;2.42;1.27;;;;;;;;;;5044415;28;20445;-64
2021/07/12 10:11:26;;;;;;;1.17;1.00;;;;;;;;;;5040727;28;20040;-65
2021/07/12 10:13:51;;;;;;;1.98;1.17;;;;;;;;;;5031058;28;20021;-65
2021/07/12 10:16:17;;;;;;;2.77;1.03;;;;;;;;;;5032954;28;20025;-65
2021/07/12 10:18:42;;;;;;;2.50;1.30;;;;;;;;;;5048321;28;20255;-64
2021/07/12 10:21:09;;;;;;;2.15;1.00;;;;;;;;;;5039884;28;20077;-64
2021/07/12 10:23:35;;;;;;;3.05;1.17;;;;;;;;;;5029060;28;20447;-66
2021/07/12 10:26:02;;;;;;;4.03;1.30;;;;;;;;;;5038724;28;20076;-64
2021/07/12 10:28:40;;;;;;;2.58;1.25;;;;;;;;;;5033671;28;20373;-64
2021/07/12 10:31:17;;;;;;;2.13;1.23;;;;;;;;;;5029970;28;20139;-65
2021/07/12 10:33:42;;;;;;;2.03;1.30;;;;;;;;;;5035863;28;20029;-64
2021/07/12 10:36:07;;;;;;;1.38;1.05;;;;;;;;;;5035725;28;20381;-65
2021/07/12 10:38:42;;;;;;;1.85;1.40;;;;;;;;;;5029667;28;20392;-65
2021/07/12 10:41:23;;;;;;;2.42;1.35;;;;;;;;;;5047133;28;20029;-65
2021/07/12 10:43:49;;;;;;;4.10;1.20;;;;;;;;;;5045661;28;20440;-64
2021/07/12 10:46:23;;;;;;;2.28;1.58;;;;;;;;;;5048877;28;20024;-65
2021/07/12 10:48:49;;;;;;;3.08;1.42;;;;;;;;;;5048298;28;20017;-64
2021/07/12 10:51:18;;;;;;;2.65;1.05;;;;;;;;;;5047171;28;20094;-65
2021/07/12 10:54:02;;;;;;;1.88;1.20;;;;;;;;;;5029525;28;20033;-64
2021/07/12 10:56:48;;;;;;;2.03;1.20;;;;;;;;;;5029228;28;20496;-64
2021/07/12 10:59:32;;;;;;;1.58;1.10;;;;;;;;;;5024410;28;20017;-64
2021/07/12 11:01:58;;;;;;;1.45;1.10;;;;;;;;;;5039208;28;20499;-64
2021/07/12 11:04:39;;;;;;;2.10;1.45;;;;;;;;;;5025361;28;20033;-64
2021/07/12 11:07:06;;;;;;;3.05;1.30;;;;;;;;;;5035233;28;20488;-63
2021/07/12 11:09:45;;;;;;;3.10;1.60;;;;;;;;;;5032676;28;20049;-64
2021/07/12 11:12:28;;;;;;;3.53;1.20;;;;;;;;;;5027037;28;20026;-64
2021/07/12 11:15:05;;;;;;;3.42;1.30;;;;;;;;;;5041470;28;20028;-64
2021/07/12 11:17:50;;;;;;;1.75;1.10;;;;;;;;;;5034842;28;20034;-63
2021/07/12 11:20:17;;;;;;;4.72;1.20;;;;;;;;;;5030097;28;20033;-64
2021/07/12 11:22:52;;;;;;;1.95;1.17;;;;;;;;;;5032177;28;20091;-65
2021/07/12 11:25:36;;;;;;;2.63;1.00;;;;;;;;;;5036856;28;20040;-63
2021/07/12 11:28:09;;;;;;;1.35;1.00;;;;;;;;;;5034603;28;20184;-64
2021/07/12 11:30:35;;;;;;;2.13;1.08;;;;;;;;;;5036059;28;20025;-64
2021/07/12 11:33:00;;;;;;;1.33;0.98;;;;;;;;;;5031274;28;20016;-64
2021/07/12 11:35:25;;;;;;;1.42;1.30;;;;;;;;;;5030498;28;20041;-64
2021/07/12 11:37:50;;;;;;;1.65;1.00;;;;;;;;;;5031967;28;20025;-63
2021/07/12 11:40:16;;;;;;;1.67;1.15;;;;;;;;;;5033332;28;20029;-63
2021/07/12 11:42:42;;;;;;;2.30;1.38;;;;;;;;;;5032329;28;20037;-64
2021/07/12 11:45:08;;;;;;;3.58;1.33;;;;;;;;;;5040935;28;20099;-64
2021/07/12 11:47:36;;;;;;;1.38;1.10;;;;;;;;;;5029525;28;20474;-64
2021/07/12 11:50:05;;;;;;;1.98;1.23;;;;;;;;;;5037726;28;20509;-64
2021/07/12 11:52:30;;;;;;;2.53;1.10;;;;;;;;;;5032159;28;20021;-63
2021/07/12 11:54:59;;;;;;;2.17;1.38;;;;;;;;;;5037828;28;20307;-64
2021/07/12 11:57:24;;;;;;;5.55;1.63;;;;;;;;;;5025589;28;20247;-64
2021/07/12 11:59:49;;;;;;;1.97;1.43;;;;;;;;;;5029418;28;20530;-64
2021/07/12 12:02:16;;;;;;;2.47;1.55;;;;;;;;;;5026035;28;20367;-64
2021/07/12 12:04:42;;;;;;;1.88;1.27;;;;;;;;;;5034561;28;20143;-62
2021/07/12 12:07:26;;;;;;;6.10;1.90;;;;;;;;;;5025521;28;20072;-63
2021/07/12 12:09:53;;;;;;;2.97;1.58;;;;;;;;;;5029418;28;20025;-62
2021/07/12 12:12:22;;;;;;;3.15;1.77;;;;;;;;;;5030192;28;20113;-62
2021/07/12 12:14:47;;;;;;;2.92;1.80;;;;;;;;;;5033838;28;20036;-64
2021/07/12 12:17:12;;;;;;;7.38;1.70;;;;;;;;;;5033320;28;20033;-62
2021/07/12 12:19:38;;;;;;;2.92;1.95;;;;;;;;;;5026672;28;20032;-63
2021/07/12 12:22:03;;;;;;;3.07;1.60;;;;;;;;;;5022122;28;20017;-68
2021/07/12 12:24:28;;;;;;;4.07;1.70;;;;;;;;;;5034962;28;20272;-62
2021/07/12 12:26:53;;;;;;;2.65;1.40;;;;;;;;;;5035476;28;20716;-62
2021/07/12 12:29:21;;;;;;;3.28;1.60;;;;;;;;;;5038382;28;20029;-62
2021/07/12 12:31:46;;;;;;;2.47;1.70;;;;;;;;;;5036250;28;20031;-63
2021/07/12 12:34:13;;;;;;;1.73;1.15;;;;;;;;;;5028811;28;20021;-63
2021/07/12 12:36:40;;;;;;;1.75;1.30;;;;;;;;;;5027517;28;20112;-62
2021/07/12 12:39:13;;;;;;;2.08;1.42;;;;;;;;;;5033502;28;20079;-63
2021/07/12 12:41:49;;;;;;;2.75;1.85;;;;;;;;;;5031158;28;20429;-64
2021/07/12 12:44:15;;;;;;;5.40;2.10;;;;;;;;;;5031871;28;20076;-62
2021/07/12 12:46:46;;;;;;;4.70;2.30;;;;;;;;;;5030287;28;20025;-62
2021/07/12 12:49:20;;;;;;;2.20;1.70;;;;;;;;;;5034591;28;20126;-63
2021/07/12 12:51:49;;;;;;;2.78;1.85;;;;;;;;;;5027713;28;20138;-63
2021/07/12 12:54:14;;;;;;;3.60;2.20;;;;;;;;;;5032039;28;20076;-63
2021/07/12 12:56:46;;;;;;;3.35;2.15;;;;;;;;;;5031579;28;20053;-64
2021/07/12 12:59:11;;;;;;;2.50;2.00;;;;;;;;;;5028387;28;20033;-64
2021/07/12 13:01:38;;;;;;;3.75;1.90;;;;;;;;;;5034283;28;20029;-65
2021/07/12 13:04:07;;;;;;;2.85;1.90;;;;;;;;;;5028978;28;20021;-63
2021/07/12 13:06:36;;;;;;;4.53;2.45;;;;;;;;;;5026786;28;20083;-63
2021/07/12 13:09:01;;;;;;;2.47;1.77;;;;;;;;;;5027324;28;20786;-63
2021/07/12 13:11:26;;;;;;;3.60;2.55;;;;;;;;;;5034226;28;20017;-63
2021/07/12 13:13:55;;;;;;;3.20;2.30;;;;;;;;;;5030897;28;20154;-63
2021/07/12 13:16:20;;;;;;;2.78;2.05;;;;;;;;;;5029078;28;20132;-64
2021/07/12 13:18:48;;;;;;;2.50;1.80;;;;;;;;;;5033459;28;20021;-64
2021/07/12 13:21:14;;;;;;;4.10;2.20;;;;;;;;;;5031116;28;20361;-63
2021/07/12 13:23:45;;;;;;;3.75;2.03;;;;;;;;;;5036654;28;20033;-63
2021/07/12 13:26:10;;;;;;;3.72;2.22;;;;;;;;;;5033109;28;20068;-63
2021/07/12 13:28:36;;;;;;;5.30;2.08;;;;;;;;;;5040342;28;20448;-65
2021/07/12 13:31:02;;;;;;;3.58;2.47;;;;;;;;;;5032596;28;20083;-64
2021/07/12 13:33:28;;;;;;;3.00;2.17;;;;;;;;;;5027345;28;20018;-64
2021/07/12 13:35:54;;;;;;;3.35;2.22;;;;;;;;;;5021486;28;20087;-63
2021/07/12 13:38:19;;;;;;;3.05;2.03;;;;;;;;;;5030930;28;20030;-64
2021/07/12 13:40:45;;;;;;;3.10;2.27;;;;;;;;;;5033574;28;20411;-64
2021/07/12 13:43:10;;;;;;;4.50;2.70;;;;;;;;;;5021595;28;20367;-62
2021/07/12 13:45:36;;;;;;;2.80;2.10;;;;;;;;;;5028377;28;20521;-63
2021/07/12 13:48:01;;;;;;;4.53;2.70;;;;;;;;;;5030158;28;20457;-63
2021/07/12 13:50:28;;;;;;;2.78;2.28;;;;;;;;;;5031522;28;20025;-64
2021/07/12 13:52:54;;;;;;;3.95;2.53;;;;;;;;;;5037935;28;20021;-63
2021/07/12 13:55:19;;;;;;;7.55;2.45;;;;;;;;;;5030622;28;20772;-64
2021/07/12 13:57:46;;;;;;;3.13;2.00;;;;;;;;;;5032528;28;20436;-64
2021/07/12 14:00:12;;;;;;;4.28;2.30;;;;;;;;;;5026737;28;20065;-64
2021/07/12 14:02:37;;;;;;;3.17;2.40;;;;;;;;;;5029260;28;20018;-63
2021/07/12 14:05:03;;;;;;;2.10;1.77;;;;;;;;;;5035218;28;20032;-65
2021/07/12 14:07:28;;;;;;;3.20;2.30;;;;;;;;;;5028450;28;20025;-64
2021/07/12 14:09:53;;;;;;;3.08;2.20;;;;;;;;;;5037988;28;20025;-64
2021/07/12 14:12:19;;;;;;;3.13;2.30;;;;;;;;;;5037807;28;20475;-64
2021/07/12 14:14:44;;;;;;;4.47;2.60;;;;;;;;;;5035465;28;20283;-64
2021/07/12 14:17:10;;;;;;;2.63;1.80;;;;;;;;;;5026967;28;20018;-64
2021/07/12 14:19:36;;;;;;;3.78;2.10;;;;;;;;;;5027675;28;20044;-63
2021/07/12 14:22:02;;;;;;;2.80;1.60;;;;;;;;;;5028767;28;20040;-64
2021/07/12 14:24:27;;;;;;;3.58;2.10;;;;;;;;;;5031151;28;20021;-64
2021/07/12 14:26:53;;;;;;;2.70;1.50;;;;;;;;;;5033353;28;20044;-64
2021/07/12 14:29:18;;;;;;;3.33;1.83;;;;;;;;;;5029419;28;20299;-63
2021/07/12 14:31:43;;;;;;;3.73;2.40;;;;;;;;;;5034997;28;20220;-63
2021/07/12 14:34:08;;;;;;;5.60;1.90;;;;;;;;;;5032728;28;20272;-63
2021/07/12 14:36:34;;;;;;;3.67;1.63;;;;;;;;;;5027200;28;20065;-63
2021/07/12 14:38:59;;;;;;;2.75;1.85;;;;;;;;;;5041158;28;20032;-63
2021/07/12 14:41:24;;;;;;;1.85;1.50;;;;;;;;;;5028506;28;20068;-63
2021/07/12 14:43:50;;;;;;;3.13;2.03;;;;;;;;;;5026785;28;20537;-63